Time;durP1;ratioP1;P1;durP2;ratioP2;P2;SDS_P1;SDS_P2;PMS_P1;PMS_P2;Temp;Humidity;BMP_temperature;BMP_pressure;BME280_temperature;BME280_humidity;BME280_pressure;Samples;Min_cycle;Max_cycle;Signal;HPM_P1;HPM_P2
2021/11/06 00:02:46;;;;;;;;;;;8.30;99.90;;;;;;8369015;28;19920;-71
2021/11/06 00:06:48;;;;;;;;;;;8.30;99.90;;;;;;8365281;28;19931;-71
2021/11/06 00:10:50;;;;;;;;;;;8.30;99.90;;;;;;8358547;28;19925;-72
2021/11/06 00:14:51;;;;;;;;;;;8.20;99.90;;;;;;8364530;28;19920;-71
2021/11/06 00:18:53;;;;;;;;;;;8.20;99.90;;;;;;8365438;28;19920;-71
2021/11/06 00:22:55;;;;;;;;;;;8.20;99.90;;;;;;8360920;28;19920;-72
2021/11/06 00:26:56;;;;;;;;;;;8.20;99.90;;;;;;8358231;28;19925;-72
2021/11/06 00:30:58;;;;;;;;;;;8.20;99.90;;;;;;8362971;28;20017;-72
2021/11/06 00:34:59;;;;;;;;;;;8.10;99.90;;;;;;8367870;28;19921;-72
2021/11/06 00:39:02;;;;;;;;;;;8.10;99.90;;;;;;8366492;28;20371;-71
2021/11/06 00:43:04;;;;;;;;;;;8.10;99.90;;;;;;8371799;28;19932;-72
2021/11/06 00:47:06;;;;;;;;;;;8.10;99.90;;;;;;8366739;28;20618;-71
2021/11/06 00:51:09;;;;;;;;;;;8.10;99.90;;;;;;8356579;28;19921;-71
2021/11/06 00:55:11;;;;;;;;;;;8.00;99.90;;;;;;8363758;28;19990;-72
2021/11/06 00:59:12;;;;;;;;;;;8.00;99.90;;;;;;8363790;28;19921;-71
2021/11/06 01:03:14;;;;;;;;;;;8.00;99.90;;;;;;8350990;28;20284;-72
2021/11/06 01:07:16;;;;;;;;;;;8.10;99.90;;;;;;8359519;28;19931;-72
2021/11/06 01:11:18;;;;;;;;;;;8.10;99.90;;;;;;8371996;28;20319;-72
2021/11/06 01:15:20;;;;;;;;;;;8.10;99.90;;;;;;8367115;28;19928;-71
2021/11/06 01:19:22;;;;;;;;;;;8.10;99.90;;;;;;8377624;28;19931;-72
2021/11/06 01:23:23;;;;;;;;;;;8.10;99.90;;;;;;8359422;28;19920;-71
2021/11/06 01:27:29;;;;;;;;;;;8.10;99.90;;;;;;8371206;28;19963;-71
2021/11/06 01:31:31;;;;;;;;;;;8.10;99.90;;;;;;8368705;28;20306;-71
2021/11/06 01:35:32;;;;;;;;;;;8.10;99.90;;;;;;8369720;28;19927;-72
2021/11/06 01:39:34;;;;;;;;;;;8.00;99.90;;;;;;8368232;28;19970;-71
2021/11/06 01:43:36;;;;;;;;;;;8.10;99.90;;;;;;8375696;28;20010;-71
2021/11/06 01:47:38;;;;;;;;;;;8.10;99.90;;;;;;8355816;28;20212;-72
2021/11/06 01:51:40;;;;;;;;;;;8.10;99.90;;;;;;8368398;28;20229;-71
2021/11/06 01:55:41;;;;;;;;;;;8.00;99.90;;;;;;8363951;28;19921;-72
2021/11/06 01:59:44;;;;;;;;;;;8.00;99.90;;;;;;8371234;28;19921;-71
2021/11/06 02:03:47;;;;;;;;;;;8.00;99.90;;;;;;8381173;28;20379;-72
2021/11/06 02:07:48;;;;;;;;;;;8.00;99.90;;;;;;8373457;28;21408;-72
2021/11/06 02:11:50;;;;;;;;;;;8.00;99.90;;;;;;8365104;28;19924;-72
2021/11/06 02:15:52;;;;;;;;;;;8.10;99.90;;;;;;8365611;28;19920;-72
2021/11/06 02:19:54;;;;;;;;;;;8.10;99.90;;;;;;8392679;28;20005;-71
2021/11/06 02:23:55;;;;;;;;;;;8.20;99.90;;;;;;8372020;28;20392;-72
2021/11/06 02:27:57;;;;;;;;;;;8.20;99.90;;;;;;8363945;28;19929;-72
2021/11/06 02:31:59;;;;;;;;;;;8.20;99.90;;;;;;8379951;28;19928;-72
2021/11/06 02:36:01;;;;;;;;;;;8.20;99.90;;;;;;8374883;28;19920;-72
2021/11/06 02:40:06;;;;;;;;;;;8.20;99.90;;;;;;8374033;28;19920;-71
2021/11/06 02:44:09;;;;;;;;;;;8.20;99.90;;;;;;8376872;28;20320;-71
2021/11/06 02:48:11;;;;;;;;;;;8.10;99.90;;;;;;8364435;28;20357;-71
2021/11/06 02:52:13;;;;;;;;;;;8.10;99.90;;;;;;8365902;28;19920;-71
2021/11/06 02:56:14;;;;;;;;;;;8.10;99.90;;;;;;8393752;28;20360;-72
2021/11/06 03:00:16;;;;;;;;;;;8.10;99.90;;;;;;8364756;28;19925;-72
2021/11/06 03:04:18;;;;;;;;;;;8.10;99.90;;;;;;8357902;28;19925;-71
2021/11/06 03:08:20;;;;;;;;;;;8.10;99.90;;;;;;8371438;28;19921;-72
2021/11/06 03:12:21;;;;;;;;;;;8.00;99.90;;;;;;8362128;28;19920;-72
2021/11/06 03:16:23;;;;;;;;;;;8.00;99.90;;;;;;8351879;28;19921;-71
2021/11/06 03:20:25;;;;;;;;;;;8.00;99.90;;;;;;8400298;28;19929;-72
2021/11/06 03:24:26;;;;;;;;;;;8.00;99.90;;;;;;8365761;28;19924;-72
2021/11/06 03:28:28;;;;;;;;;;;8.00;99.90;;;;;;8369382;28;19928;-71
2021/11/06 03:32:30;;;;;;;;;;;8.00;99.90;;;;;;8373347;28;19929;-71
2021/11/06 03:36:31;;;;;;;;;;;7.90;99.90;;;;;;8357669;28;21807;-71
2021/11/06 03:40:33;;;;;;;;;;;7.90;99.90;;;;;;8365376;28;19944;-71
2021/11/06 03:44:36;;;;;;;;;;;7.90;99.90;;;;;;8365843;28;20398;-71
2021/11/06 03:48:37;;;;;;;;;;;7.90;99.90;;;;;;8364799;28;19921;-72
2021/11/06 03:52:39;;;;;;;;;;;7.90;99.90;;;;;;8403719;28;20296;-72
2021/11/06 03:56:41;;;;;;;;;;;7.90;99.90;;;;;;8373109;28;19944;-72
2021/11/06 04:00:43;;;;;;;;;;;7.80;99.90;;;;;;8366228;28;19920;-72
2021/11/06 04:04:44;;;;;;;;;;;7.80;99.90;;;;;;8368601;28;19987;-71
2021/11/06 04:08:46;;;;;;;;;;;7.80;99.90;;;;;;8374346;28;19933;-72
2021/11/06 04:12:48;;;;;;;;;;;7.80;99.90;;;;;;8388833;28;19922;-71
2021/11/06 04:16:49;;;;;;;;;;;7.80;99.90;;;;;;8361360;28;19921;-72
2021/11/06 04:20:51;;;;;;;;;;;7.70;99.90;;;;;;8354811;28;19920;-71
2021/11/06 04:24:53;;;;;;;;;;;7.60;99.90;;;;;;8368437;28;20296;-71
2021/11/06 04:28:54;;;;;;;;;;;7.60;99.90;;;;;;8375369;28;19920;-71
2021/11/06 04:32:56;;;;;;;;;;;7.50;99.90;;;;;;8370525;28;19948;-72
2021/11/06 04:36:58;;;;;;;;;;;7.50;99.90;;;;;;8371899;28;20372;-72
2021/11/06 04:40:59;;;;;;;;;;;7.50;99.90;;;;;;8354672;28;19920;-71
2021/11/06 04:45:01;;;;;;;;;;;7.40;99.90;;;;;;8368790;28;19920;-72
2021/11/06 04:49:03;;;;;;;;;;;7.40;99.90;;;;;;8370650;28;20379;-71
2021/11/06 04:53:05;;;;;;;;;;;7.40;99.90;;;;;;8341047;28;19925;-71
2021/11/06 04:57:06;;;;;;;;;;;7.40;99.90;;;;;;8359642;28;19924;-72
2021/11/06 05:01:08;;;;;;;;;;;7.50;99.90;;;;;;8361332;28;19928;-72
2021/11/06 05:05:10;;;;;;;;;;;7.50;99.90;;;;;;8352854;28;19920;-71
2021/11/06 05:09:12;;;;;;;;;;;7.50;99.90;;;;;;8365364;28;19932;-71
2021/11/06 05:13:14;;;;;;;;;;;7.50;99.90;;;;;;8359861;28;19928;-71
2021/11/06 05:17:16;;;;;;;;;;;7.50;99.90;;;;;;8367970;28;19920;-71
2021/11/06 05:21:18;;;;;;;;;;;7.50;99.90;;;;;;8353425;28;19924;-71
2021/11/06 05:25:20;;;;;;;;;;;7.60;99.90;;;;;;8355925;28;19920;-71
2021/11/06 05:29:22;;;;;;;;;;;7.50;99.90;;;;;;8349394;28;19921;-71
2021/11/06 05:33:23;;;;;;;;;;;7.50;99.90;;;;;;8359910;28;19989;-71
2021/11/06 05:37:25;;;;;;;;;;;7.60;99.90;;;;;;8366988;28;20069;-71
2021/11/06 05:41:27;;;;;;;;;;;7.60;99.90;;;;;;8371148;28;19929;-71
2021/11/06 05:45:30;;;;;;;;;;;7.60;99.90;;;;;;8364089;28;19931;-71
2021/11/06 05:49:32;;;;;;;;;;;7.70;99.90;;;;;;8350231;28;19921;-71
2021/11/06 05:53:33;;;;;;;;;;;7.70;99.90;;;;;;8381380;28;19924;-71
2021/11/06 05:57:35;;;;;;;;;;;7.70;99.90;;;;;;8362754;28;19921;-71
2021/11/06 06:01:37;;;;;;;;;;;7.80;99.90;;;;;;8367724;28;20049;-71
2021/11/06 06:05:39;;;;;;;;;;;7.80;99.90;;;;;;8352888;28;19920;-71
2021/11/06 06:09:40;;;;;;;;;;;7.90;99.90;;;;;;8370636;28;19921;-71
2021/11/06 06:13:42;;;;;;;;;;;7.90;99.90;;;;;;8349321;28;20463;-71
2021/11/06 06:17:44;;;;;;;;;;;7.90;99.90;;;;;;8352976;28;19920;-71
2021/11/06 06:21:45;;;;;;;;;;;8.00;99.90;;;;;;8361134;28;19929;-72
2021/11/06 06:25:47;;;;;;;;;;;8.00;99.90;;;;;;8390379;28;20270;-71
2021/11/06 06:29:49;;;;;;;;;;;8.00;99.90;;;;;;8366304;28;19920;-71
2021/11/06 06:33:50;;;;;;;;;;;8.10;99.90;;;;;;8382884;28;19947;-71
2021/11/06 06:37:52;;;;;;;;;;;8.10;99.90;;;;;;8373218;28;19920;-72
2021/11/06 06:41:54;;;;;;;;;;;8.10;99.90;;;;;;8360547;28;19932;-72
2021/11/06 06:45:55;;;;;;;;;;;8.10;99.90;;;;;;8372145;28;19924;-71
2021/11/06 06:49:57;;;;;;;;;;;8.10;99.90;;;;;;8362823;28;19924;-71
2021/11/06 06:53:59;;;;;;;;;;;8.10;99.90;;;;;;8370029;28;19928;-72
2021/11/06 06:58:01;;;;;;;;;;;8.10;99.90;;;;;;8368044;28;19924;-71
2021/11/06 07:02:03;;;;;;;;;;;8.20;99.90;;;;;;8363819;28;19924;-71
2021/11/06 07:06:05;;;;;;;;;;;8.20;99.90;;;;;;8367700;28;19921;-72
2021/11/06 07:10:07;;;;;;;;;;;8.20;99.90;;;;;;8357547;28;19925;-72
2021/11/06 07:14:09;;;;;;;;;;;8.20;99.90;;;;;;8360284;28;20323;-71
2021/11/06 07:18:11;;;;;;;;;;;8.20;99.90;;;;;;8370211;28;19927;-71
2021/11/06 07:22:13;;;;;;;;;;;8.20;99.90;;;;;;8344934;28;19929;-71
2021/11/06 07:26:14;;;;;;;;;;;8.20;99.90;;;;;;8355197;28;19928;-71
2021/11/06 07:30:17;;;;;;;;;;;8.30;99.90;;;;;;8363114;28;19928;-71
2021/11/06 07:34:19;;;;;;;;;;;8.30;99.90;;;;;;8370586;28;19967;-72
2021/11/06 07:38:21;;;;;;;;;;;8.30;99.90;;;;;;8365790;28;21882;-71
2021/11/06 07:42:23;;;;;;;;;;;8.30;99.90;;;;;;8375963;28;19920;-71
2021/11/06 07:46:24;;;;;;;;;;;8.30;99.90;;;;;;8359866;28;19947;-71
2021/11/06 07:50:26;;;;;;;;;;;8.40;99.90;;;;;;8367753;28;19920;-71
2021/11/06 07:54:28;;;;;;;;;;;8.40;99.90;;;;;;8358564;28;19965;-71
2021/11/06 07:58:30;;;;;;;;;;;8.40;99.90;;;;;;8346904;28;20649;-71
2021/11/06 08:02:33;;;;;;;;;;;8.40;99.90;;;;;;8383138;28;20012;-71
2021/11/06 08:06:37;;;;;;;;;;;8.50;99.90;;;;;;8351780;28;19924;-71
2021/11/06 08:10:39;;;;;;;;;;;8.50;99.90;;;;;;8352439;28;19927;-71
2021/11/06 08:14:40;;;;;;;;;;;8.60;99.90;;;;;;8352416;28;19920;-71
2021/11/06 08:18:43;;;;;;;;;;;8.70;99.90;;;;;;8350730;28;20365;-72
2021/11/06 08:22:45;;;;;;;;;;;8.70;99.90;;;;;;8358368;28;23047;-71
2021/11/06 08:26:47;;;;;;;;;;;8.70;99.90;;;;;;8356611;28;20498;-71
2021/11/06 08:30:48;;;;;;;;;;;8.70;99.90;;;;;;8350450;28;19929;-71
2021/11/06 08:34:50;;;;;;;;;;;8.70;99.90;;;;;;8381458;28;19947;-72
2021/11/06 08:38:52;;;;;;;;;;;8.70;99.90;;;;;;8382663;28;20175;-71
2021/11/06 08:42:54;;;;;;;;;;;8.80;99.90;;;;;;8352880;28;19931;-71
2021/11/06 08:46:56;;;;;;;;;;;8.90;99.90;;;;;;8350571;28;19993;-71
2021/11/06 08:50:58;;;;;;;;;;;8.90;99.90;;;;;;8354071;28;19928;-71
2021/11/06 08:55:13;;;;;;;;;;;9.00;99.90;;;;;;8360668;28;19998;-71
2021/11/06 08:59:15;;;;;;;;;;;9.10;99.90;;;;;;8355322;28;19921;-72
2021/11/06 09:03:19;;;;;;;;;;;9.20;99.90;;;;;;8350510;28;19929;-72
2021/11/06 09:07:20;;;;;;;;;;;9.30;99.90;;;;;;8352840;28;19925;-71
2021/11/06 09:11:22;;;;;;;;;;;9.40;99.90;;;;;;8352247;28;19928;-71
2021/11/06 09:15:24;;;;;;;;;;;9.50;99.90;;;;;;8366935;28;19951;-71
2021/11/06 09:19:26;;;;;;;;;;;9.70;99.90;;;;;;8349329;28;20352;-71
2021/11/06 09:23:31;;;;;;;;;;;9.70;99.90;;;;;;8353252;28;19929;-71
2021/11/06 09:27:34;;;;;;;;;;;9.80;99.90;;;;;;8348657;28;19920;-71
2021/11/06 09:31:36;;;;;;;;;;;9.80;99.90;;;;;;8352928;28;20418;-71
2021/11/06 09:35:37;;;;;;;;;;;9.90;99.90;;;;;;8351060;28;19932;-71
2021/11/06 09:39:39;;;;;;;;;;;9.90;99.90;;;;;;8380728;28;19928;-71
2021/11/06 09:43:41;;;;;;;;;;;10.00;99.90;;;;;;8351929;28;20387;-71
2021/11/06 09:47:43;;;;;;;;;;;10.00;99.90;;;;;;8349930;28;19924;-72
2021/11/06 09:51:45;;;;;;;;;;;10.00;99.90;;;;;;8351142;28;19920;-72
2021/11/06 09:55:47;;;;;;;;;;;10.00;99.90;;;;;;8351768;28;19929;-71
2021/11/06 09:59:50;;;;;;;;;;;10.10;99.90;;;;;;8348450;28;19936;-71
2021/11/06 10:03:52;;;;;;;;;;;10.20;99.90;;;;;;8351836;28;19928;-71
2021/11/06 10:07:54;;;;;;;;;;;10.30;99.90;;;;;;8350492;28;19924;-71
2021/11/06 10:11:55;;;;;;;;;;;10.30;99.90;;;;;;8352048;28;19928;-71
2021/11/06 10:15:58;;;;;;;;;;;10.40;99.90;;;;;;8349895;28;19929;-71
2021/11/06 10:20:16;;;;;;;;;;;10.40;99.90;;;;;;8349327;28;19927;-71
2021/11/06 10:24:35;;;;;;;;;;;10.50;99.90;;;;;;8355938;28;20379;-71
2021/11/06 10:28:37;;;;;;;;;;;10.50;99.90;;;;;;8354135;28;20387;-71
2021/11/06 10:32:39;;;;;;;;;;;10.60;99.90;;;;;;8355710;28;19920;-72
2021/11/06 10:36:41;;;;;;;;;;;10.60;99.90;;;;;;8352481;28;20329;-71
2021/11/06 10:40:44;;;;;;;;;;;10.60;99.90;;;;;;8357626;28;19928;-72
2021/11/06 10:44:46;;;;;;;;;;;10.60;99.90;;;;;;8354194;28;19966;-71
2021/11/06 10:48:48;;;;;;;;;;;10.60;99.90;;;;;;8349728;28;20197;-71
2021/11/06 10:52:49;;;;;;;;;;;10.60;99.90;;;;;;8348699;28;19932;-71
2021/11/06 10:56:55;;;;;;;;;;;10.60;99.90;;;;;;8353997;28;20300;-71
2021/11/06 11:01:04;;;;;;;;;;;10.60;99.90;;;;;;8386228;28;19924;-72
2021/11/06 11:05:26;;;;;;;;;;;10.60;99.90;;;;;;8353898;28;20387;-71
2021/11/06 11:09:33;;;;;;;;;;;10.60;99.90;;;;;;8348474;28;19935;-71
2021/11/06 11:13:45;;;;;;;;;;;10.60;99.90;;;;;;8345049;28;20269;-71
2021/11/06 11:17:47;;;;;;;;;;;10.70;99.90;;;;;;8349330;28;19920;-71
2021/11/06 11:21:49;;;;;;;;;;;10.80;99.90;;;;;;8349670;28;19929;-72
2021/11/06 11:25:51;;;;;;;;;;;10.80;99.90;;;;;;8348932;28;19929;-71
2021/11/06 11:29:52;;;;;;;;;;;10.90;99.90;;;;;;8349225;28;19928;-70
2021/11/06 11:33:55;;;;;;;;;;;11.00;99.90;;;;;;8344346;28;19932;-71
2021/11/06 11:37:57;;;;;;;;;;;11.20;99.90;;;;;;8345128;28;20237;-72
2021/11/06 11:42:09;;;;;;;;;;;11.30;99.90;;;;;;8348800;28;20335;-72
2021/11/06 11:46:16;;;;;;;;;;;11.50;99.90;;;;;;8348577;28;19924;-71
2021/11/06 11:50:21;;;;;;;;;;;11.60;99.90;;;;;;8346933;28;20031;-72
2021/11/06 11:54:22;;;;;;;;;;;11.50;99.90;;;;;;8350435;28;19921;-72
2021/11/06 11:58:26;;;;;;;;;;;11.50;99.90;;;;;;8350255;28;19927;-71
2021/11/06 12:02:29;;;;;;;;;;;11.40;99.90;;;;;;8350679;28;19979;-71
2021/11/06 12:06:35;;;;;;;;;;;11.40;99.90;;;;;;8334027;28;19929;-71
2021/11/06 12:10:38;;;;;;;;;;;11.40;99.90;;;;;;8352130;28;19928;-71
2021/11/06 12:14:47;;;;;;;;;;;11.30;99.90;;;;;;8383635;28;19932;-71
2021/11/06 12:18:51;;;;;;;;;;;11.30;99.90;;;;;;8352426;28;19924;-71
2021/11/06 12:22:52;;;;;;;;;;;11.30;99.90;;;;;;8350444;28;20379;-71
2021/11/06 12:26:55;;;;;;;;;;;11.30;99.90;;;;;;8352218;28;19952;-72
2021/11/06 12:31:17;;;;;;;;;;;11.30;99.90;;;;;;8353408;28;19986;-71
2021/11/06 12:35:21;;;;;;;;;;;11.30;99.90;;;;;;8352585;28;20392;-71
2021/11/06 12:39:42;;;;;;;;;;;11.40;99.90;;;;;;8347371;28;20353;-72
2021/11/06 12:43:50;;;;;;;;;;;11.40;99.90;;;;;;8384509;28;20181;-71
2021/11/06 12:48:12;;;;;;;;;;;11.40;99.90;;;;;;8347689;28;20301;-71
2021/11/06 12:52:15;;;;;;;;;;;11.40;99.90;;;;;;8351428;28;20002;-72
2021/11/06 12:56:18;;;;;;;;;;;11.40;99.90;;;;;;8350981;28;19924;-71
2021/11/06 13:00:30;;;;;;;;;;;11.40;99.90;;;;;;8354175;28;20461;-72
2021/11/06 13:04:34;;;;;;;;;;;11.50;99.90;;;;;;8346715;28;19935;-71
2021/11/06 13:08:36;;;;;;;;;;;11.60;99.90;;;;;;8375975;28;20288;-71
2021/11/06 13:12:38;;;;;;;;;;;11.70;99.90;;;;;;8350793;28;19925;-71
2021/11/06 13:16:39;;;;;;;;;;;11.60;99.90;;;;;;8382642;28;19936;-72
2021/11/06 13:20:41;;;;;;;;;;;11.70;99.90;;;;;;8350611;28;19924;-72
2021/11/06 13:24:57;;;;;;;;;;;11.70;99.90;;;;;;8350297;28;20363;-72
2021/11/06 13:28:59;;;;;;;;;;;11.70;99.90;;;;;;8346741;28;20388;-71
2021/11/06 13:33:00;;;;;;;;;;;11.70;99.90;;;;;;8349030;28;20380;-71
2021/11/06 13:37:02;;;;;;;;;;;11.70;99.90;;;;;;8350508;28;20372;-71
2021/11/06 13:41:10;;;;;;;;;;;11.70;99.90;;;;;;8350942;28;19925;-71
2021/11/06 13:45:11;;;;;;;;;;;11.70;99.90;;;;;;8354718;28;19933;-71
2021/11/06 13:49:23;;;;;;;;;;;11.70;99.90;;;;;;8349943;28;19925;-71
2021/11/06 13:53:28;;;;;;;;;;;11.80;99.90;;;;;;8347450;28;19924;-72
2021/11/06 13:57:30;;;;;;;;;;;11.80;99.90;;;;;;8351026;28;19939;-71
2021/11/06 14:01:32;;;;;;;;;;;11.80;99.90;;;;;;8354290;28;20969;-71
2021/11/06 14:05:34;;;;;;;;;;;11.80;99.90;;;;;;8358492;28;19936;-72
2021/11/06 14:09:44;;;;;;;;;;;11.80;99.90;;;;;;8356206;28;20380;-72
2021/11/06 14:13:59;;;;;;;;;;;11.80;99.90;;;;;;8387328;28;20434;-72
2021/11/06 14:18:06;;;;;;;;;;;11.80;99.90;;;;;;8355286;28;19925;-72
2021/11/06 14:22:09;;;;;;;;;;;11.80;99.90;;;;;;8356414;28;19932;-71
2021/11/06 14:26:11;;;;;;;;;;;11.80;99.90;;;;;;8352703;28;20380;-71
2021/11/06 14:30:15;;;;;;;;;;;11.70;99.90;;;;;;8353388;28;19933;-71
2021/11/06 14:34:19;;;;;;;;;;;11.70;99.90;;;;;;8356101;28;20273;-72
2021/11/06 14:38:21;;;;;;;;;;;11.60;99.90;;;;;;8354319;28;19938;-72
2021/11/06 14:42:29;;;;;;;;;;;11.60;99.90;;;;;;8387867;28;20284;-72
2021/11/06 14:46:40;;;;;;;;;;;11.60;99.90;;;;;;8385281;28;20166;-71
2021/11/06 14:50:41;;;;;;;;;;;11.60;99.90;;;;;;8356410;28;19982;-71
2021/11/06 14:54:48;;;;;;;;;;;11.60;99.90;;;;;;8353798;28;19947;-72
2021/11/06 14:58:51;;;;;;;;;;;11.60;99.90;;;;;;8352981;28;19929;-71
2021/11/06 15:02:59;;;;;;;;;;;11.60;99.90;;;;;;8354669;28;19952;-71
2021/11/06 15:07:00;;;;;;;;;;;11.60;99.90;;;;;;8352709;28;19932;-71
2021/11/06 15:11:03;;;;;;;;;;;11.50;99.90;;;;;;8358109;28;19978;-71
2021/11/06 15:15:05;;;;;;;;;;;11.50;99.90;;;;;;8329476;28;19929;-71
2021/11/06 15:19:07;;;;;;;;;;;11.50;99.90;;;;;;8323092;28;19924;-71
2021/11/06 15:23:10;;;;;;;;;;;11.50;99.90;;;;;;8349564;28;19940;-72
2021/11/06 15:27:11;;;;;;;;;;;11.40;99.90;;;;;;8351945;28;19925;-71
2021/11/06 15:31:13;;;;;;;;;;;11.30;99.90;;;;;;8349934;28;19999;-71
2021/11/06 15:35:16;;;;;;;;;;;11.40;99.90;;;;;;8355152;28;19940;-72
2021/11/06 15:39:18;;;;;;;;;;;11.30;99.90;;;;;;8352256;28;19928;-71
2021/11/06 15:43:19;;;;;;;;;;;11.30;99.90;;;;;;8352177;28;19933;-71
2021/11/06 15:47:21;;;;;;;;;;;11.30;99.90;;;;;;8352903;28;19959;-71
2021/11/06 15:51:27;;;;;;;;;;;11.30;99.90;;;;;;8350713;28;19924;-71
2021/11/06 15:55:29;;;;;;;;;;;11.30;99.90;;;;;;8383065;28;20098;-72
2021/11/06 15:59:31;;;;;;;;;;;11.20;99.90;;;;;;8349475;28;20380;-71
2021/11/06 16:03:33;;;;;;;;;;;11.20;99.90;;;;;;8351027;28;20171;-71
2021/11/06 16:07:35;;;;;;;;;;;11.10;99.90;;;;;;8352969;28;19933;-71
2021/11/06 16:11:37;;;;;;;;;;;11.10;99.90;;;;;;8352778;28;19965;-72
2021/11/06 16:15:41;;;;;;;;;;;11.10;99.90;;;;;;8353125;28;19924;-71
2021/11/06 16:19:44;;;;;;;;;;;11.00;99.90;;;;;;8353333;28;19933;-72
2021/11/06 16:23:45;;;;;;;;;;;11.00;99.90;;;;;;8352513;28;20462;-72
2021/11/06 16:27:47;;;;;;;;;;;11.00;99.90;;;;;;8383025;28;19925;-71
2021/11/06 16:31:49;;;;;;;;;;;11.00;99.90;;;;;;8352545;28;19925;-71
2021/11/06 16:35:51;;;;;;;;;;;11.00;99.90;;;;;;8348241;28;19925;-72
2021/11/06 16:39:52;;;;;;;;;;;11.00;99.90;;;;;;8349549;28;20292;-72
2021/11/06 16:43:54;;;;;;;;;;;10.90;99.90;;;;;;8383670;28;19933;-72
2021/11/06 16:47:56;;;;;;;;;;;10.90;99.90;;;;;;8334778;28;19991;-72
2021/11/06 16:51:57;;;;;;;;;;;10.90;99.90;;;;;;8350435;28;19929;-72
2021/11/06 16:55:59;;;;;;;;;;;10.90;99.90;;;;;;8361814;28;20198;-72
2021/11/06 17:00:02;;;;;;;;;;;10.80;99.90;;;;;;8383323;28;19932;-71
2021/11/06 17:04:04;;;;;;;;;;;10.80;99.90;;;;;;8349524;28;20380;-72
2021/11/06 17:08:33;;;;;;;;;;;10.80;99.90;;;;;;8348395;28;19924;-72
2021/11/06 17:12:35;;;;;;;;;;;10.70;99.90;;;;;;8350430;28;20066;-71
2021/11/06 17:16:37;;;;;;;;;;;10.70;99.90;;;;;;8350256;28;19933;-72
2021/11/06 17:20:40;;;;;;;;;;;10.70;99.90;;;;;;8349980;28;19987;-71
2021/11/06 17:24:41;;;;;;;;;;;10.70;99.90;;;;;;8350581;28;19979;-72
2021/11/06 17:28:44;;;;;;;;;;;10.70;99.90;;;;;;8347485;28;19928;-72
2021/11/06 17:32:46;;;;;;;;;;;10.70;99.90;;;;;;8353845;28;19925;-72
2021/11/06 17:36:48;;;;;;;;;;;10.70;99.90;;;;;;8365894;28;20369;-71
2021/11/06 17:40:49;;;;;;;;;;;10.70;99.90;;;;;;8358566;28;19932;-71
2021/11/06 17:44:52;;;;;;;;;;;10.70;99.90;;;;;;8355418;28;19929;-72
2021/11/06 17:48:53;;;;;;;;;;;10.70;99.90;;;;;;8355515;28;20313;-72
2021/11/06 17:53:07;;;;;;;;;;;10.70;99.90;;;;;;8354844;28;19933;-72
2021/11/06 17:57:08;;;;;;;;;;;10.70;99.90;;;;;;8352439;28;20351;-72
2021/11/06 18:01:10;;;;;;;;;;;10.70;99.90;;;;;;8385614;28;19929;-71
2021/11/06 18:05:13;;;;;;;;;;;10.60;99.90;;;;;;8354484;28;20300;-72
2021/11/06 18:09:14;;;;;;;;;;;10.60;99.90;;;;;;8352041;28;20471;-72
2021/11/06 18:13:16;;;;;;;;;;;10.60;99.90;;;;;;8350200;28;19933;-73
2021/11/06 18:17:18;;;;;;;;;;;10.60;99.90;;;;;;8350821;28;19937;-72
2021/11/06 18:21:20;;;;;;;;;;;10.60;99.90;;;;;;8352478;28;19979;-72
2021/11/06 18:25:21;;;;;;;;;;;10.60;99.90;;;;;;8353813;28;19925;-71
2021/11/06 18:29:23;;;;;;;;;;;10.70;99.90;;;;;;8359591;28;19925;-71
2021/11/06 18:33:25;;;;;;;;;;;10.70;99.90;;;;;;8387735;28;19925;-72
2021/11/06 18:37:27;;;;;;;;;;;10.70;99.90;;;;;;8356593;28;19925;-72
2021/11/06 18:41:29;;;;;;;;;;;10.70;99.90;;;;;;8355197;28;20293;-71
2021/11/06 18:45:36;;;;;;;;;;;10.70;99.90;;;;;;8356540;28;19935;-71
2021/11/06 18:49:37;;;;;;;;;;;10.70;99.90;;;;;;8354803;28;19994;-71
2021/11/06 18:53:39;;;;;;;;;;;10.70;99.90;;;;;;8355280;28;20365;-71
2021/11/06 18:57:44;;;;;;;;;;;10.70;99.90;;;;;;8355017;28;20436;-71
2021/11/06 19:01:46;;;;;;;;;;;10.70;99.90;;;;;;8352894;28;19932;-71
2021/11/06 19:05:48;;;;;;;;;;;10.80;99.90;;;;;;8354554;28;19932;-71
2021/11/06 19:09:50;;;;;;;;;;;10.80;99.90;;;;;;8354378;28;20424;-72
2021/11/06 19:13:52;;;;;;;;;;;10.90;99.90;;;;;;8354027;28;19936;-72
2021/11/06 19:17:54;;;;;;;;;;;10.90;99.90;;;;;;8350729;28;20421;-71
2021/11/06 19:21:55;;;;;;;;;;;11.00;99.90;;;;;;8356842;28;19929;-71
2021/11/06 19:26:00;;;;;;;;;;;11.00;99.90;;;;;;8354240;28;20428;-72
2021/11/06 19:30:03;;;;;;;;;;;11.00;99.90;;;;;;8350162;28;19925;-72
2021/11/06 19:34:04;;;;;;;;;;;11.10;99.90;;;;;;8344693;28;19959;-72
2021/11/06 19:38:07;;;;;;;;;;;11.10;99.90;;;;;;8338808;28;19947;-72
2021/11/06 19:42:08;;;;;;;;;;;11.10;99.90;;;;;;8338332;28;20357;-71
2021/11/06 19:46:10;;;;;;;;;;;11.10;99.90;;;;;;8336683;28;19928;-71
2021/11/06 19:50:13;;;;;;;;;;;11.10;99.90;;;;;;8340642;28;19933;-72
2021/11/06 19:54:16;;;;;;;;;;;11.10;99.90;;;;;;8325297;28;19925;-72
2021/11/06 19:58:17;;;;;;;;;;;11.10;99.90;;;;;;8329384;28;19929;-72
2021/11/06 20:02:20;;;;;;;;;;;11.10;99.90;;;;;;8345982;28;19933;-72
2021/11/06 20:06:21;;;;;;;;;;;11.10;99.90;;;;;;8322859;28;19971;-72
2021/11/06 20:10:23;;;;;;;;;;;11.10;99.90;;;;;;8323451;28;19929;-71
2021/11/06 20:14:25;;;;;;;;;;;11.10;99.90;;;;;;8332068;28;19928;-71
2021/11/06 20:18:27;;;;;;;;;;;11.10;99.90;;;;;;8321484;28;19941;-71
2021/11/06 20:22:29;;;;;;;;;;;11.10;99.90;;;;;;8324056;28;19929;-71
2021/11/06 20:26:31;;;;;;;;;;;11.10;99.90;;;;;;8341887;28;19984;-71
2021/11/06 20:30:34;;;;;;;;;;;11.10;99.90;;;;;;8322555;28;19932;-71
2021/11/06 20:34:36;;;;;;;;;;;11.10;99.90;;;;;;8322758;28;19933;-72
2021/11/06 20:38:40;;;;;;;;;;;11.10;99.90;;;;;;8322932;28;20300;-71
2021/11/06 20:42:42;;;;;;;;;;;11.10;99.90;;;;;;8325138;28;20299;-72
2021/11/06 20:46:49;;;;;;;;;;;11.10;99.90;;;;;;8339147;28;20493;-72
2021/11/06 20:50:50;;;;;;;;;;;11.10;99.90;;;;;;8323556;28;19975;-72
2021/11/06 20:54:52;;;;;;;;;;;11.10;99.90;;;;;;8336055;28;19932;-71
2021/11/06 20:58:55;;;;;;;;;;;11.10;99.90;;;;;;8325655;28;19929;-71
2021/11/06 21:02:59;;;;;;;;;;;11.10;99.90;;;;;;8338686;28;20051;-72
2021/11/06 21:07:02;;;;;;;;;;;11.10;99.90;;;;;;8322431;28;19929;-71
2021/11/06 21:15:41;;;;;;;;;;;11.10;99.90;;;;;;8320870;28;20348;-71
2021/11/06 21:19:43;;;;;;;;;;;11.10;99.90;;;;;;8324070;28;20396;-72
2021/11/06 21:23:45;;;;;;;;;;;11.10;99.90;;;;;;8330457;28;19971;-71
2021/11/06 21:27:47;;;;;;;;;;;11.10;99.90;;;;;;8320269;28;19932;-71
2021/11/06 21:31:48;;;;;;;;;;;11.10;99.90;;;;;;8321088;28;19969;-71
2021/11/06 21:35:51;;;;;;;;;;;11.10;99.90;;;;;;8327786;28;20443;-70
2021/11/06 21:40:01;;;;;;;;;;;11.10;99.90;;;;;;8340439;28;19995;-71
2021/11/06 21:44:03;;;;;;;;;;;11.10;99.90;;;;;;8324072;28;20408;-72
2021/11/06 21:48:05;;;;;;;;;;;11.20;99.90;;;;;;8324484;28;20262;-71
2021/11/06 21:52:07;;;;;;;;;;;11.20;99.90;;;;;;8320555;28;19925;-72
2021/11/06 21:56:10;;;;;;;;;;;11.20;99.90;;;;;;8324982;28;20373;-71
2021/11/06 22:00:15;;;;;;;;;;;11.20;99.90;;;;;;8326580;28;19929;-71
2021/11/06 22:04:16;;;;;;;;;;;11.20;99.90;;;;;;8363573;28;20265;-71
2021/11/06 22:08:18;;;;;;;;;;;11.10;99.90;;;;;;8354990;28;20384;-71
2021/11/06 22:12:20;;;;;;;;;;;11.10;99.90;;;;;;8362187;28;19932;-71
2021/11/06 22:16:22;;;;;;;;;;;11.00;99.90;;;;;;8384042;28;19928;-71
2021/11/06 22:20:28;;;;;;;;;;;10.90;99.90;;;;;;8374559;28;19935;-71
2021/11/06 22:24:30;;;;;;;;;;;10.90;99.90;;;;;;8366290;28;19931;-71
2021/11/06 22:28:33;;;;;;;;;;;10.80;99.90;;;;;;8375799;28;19933;-71
2021/11/06 22:32:35;;;;;;;;;;;10.70;99.90;;;;;;8363740;28;19925;-71
2021/11/06 22:36:37;;;;;;;;;;;10.60;99.90;;;;;;8393860;28;19925;-71
2021/11/06 22:40:38;;;;;;;;;;;10.50;99.90;;;;;;8367003;28;19933;-71
2021/11/06 22:44:40;;;;;;;;;;;10.40;99.90;;;;;;8370296;28;20399;-70
2021/11/06 22:48:44;;;;;;;;;;;10.30;99.90;;;;;;8367649;28;19929;-70
2021/11/06 22:52:46;;;;;;;;;;;10.30;99.90;;;;;;8371205;28;19932;-70
2021/11/06 22:56:49;;;;;;;;;;;10.30;99.90;;;;;;8366154;28;19971;-70
2021/11/06 23:00:54;;;;;;;;;;;10.20;99.90;;;;;;8375007;28;19924;-70
2021/11/06 23:04:58;;;;;;;;;;;10.20;99.90;;;;;;8365941;28;20027;-70
2021/11/06 23:09:01;;;;;;;;;;;10.20;99.90;;;;;;8389910;28;19925;-70
2021/11/06 23:13:05;;;;;;;;;;;10.20;99.90;;;;;;8373943;28;20320;-69
2021/11/06 23:17:07;;;;;;;;;;;10.20;99.90;;;;;;8362238;28;19926;-70
2021/11/06 23:21:09;;;;;;;;;;;10.20;99.90;;;;;;8347980;28;19925;-70
2021/11/06 23:25:11;;;;;;;;;;;10.20;99.90;;;;;;8391612;28;19932;-70
2021/11/06 23:29:14;;;;;;;;;;;10.20;99.90;;;;;;8380227;28;19931;-70
2021/11/06 23:33:16;;;;;;;;;;;10.20;99.90;;;;;;8364537;28;19924;-70
2021/11/06 23:37:18;;;;;;;;;;;10.20;99.90;;;;;;8376506;28;19928;-70
2021/11/06 23:41:22;;;;;;;;;;;10.20;99.90;;;;;;8362858;28;19932;-70
2021/11/06 23:45:23;;;;;;;;;;;10.20;99.90;;;;;;8367154;28;19925;-70